Kalamazoo, MI (49006)

11:16 PM EST on March 05, 2015 (GMT -0500)
Westwood | Change Station
CLOSE
Current Station
Personal Weather Station
Location: Kalamazoo, MI
Elevation: 955 ft
Nearby Weather Stations

Elev 955 ft 42.30 °N, 85.62 °W | Updated 7 seconds ago

Clear
Clear
7.5 °F
Feels Like 8 °F
N
0.0
Wind Variable Wind from West
Gusts 0.0 mph

Today
High -- | Low -- °F
--% Chance of Precip.
Yesterday
High -- | Low -- °F
Precip. -- in
7:11 AM 6:36 PM
Full, 100% visible
Pressure 30.57 in
Visibility 10.0 miles
Clouds Clear
Windchill 8 °F
Dew Point -7 °F
Humidity 50%
Rainfall in
Snow Depth Not available.
UV 0 out of 12
Pollen .40 out of 12
Air Quality Not available.
Flu Activity Not available.
METAR KAZO 060353Z AUTO 21004KT 10SM CLR M15/M18 A3051 RMK AO2 SLP352 T11501178

More Conditions Fewer Conditions

Pressure 30.57 in
Visibility 10.0 miles
Clouds Clear
Windchill 8 °F
Dew Point -7 °F
Humidity 50%
Rainfall in
Snow Depth Not available.
UV 0 out of 12
Pollen .40 out of 12
Air Quality Not available.
Flu Activity Not available.
METAR KAZO 060353Z AUTO 21004KT 10SM CLR M15/M18 A3051 RMK AO2 SLP352 T11501178

More Conditions Fewer Conditions

10-Day Weather Forecast

Almanac

Astronomy

Mar. 05, 2015 Rise Set
Actual Time
Civil Twilight
Nautical Twilight
Astronomical Twilight
Moon
Length of Visible Light
Length of Day
Tomorrow will be .
, % of the Moon is Illuminated

Today's Extremes

State Highs State Lows

Community

WunderPhotos

Upload Photos

1,803,176 photos uploaded!

WunderBlogs® & News

Nearby

Air Quality

  Air Quality AQ Index Pollutant
Not available.

Snow Depth

Station Depth Elevation

Earthquake Activity

City Distance Mag. Time & Date
Minimum magnitude displayed is 2.5.

Coastal Water Temperatures

Place Temperature

Nearby Weather Stations